createdAt,value
2023-01-31T00:00:31.390Z,97299.03
2023-01-31T00:02:57.676Z,97303.44
2023-01-31T00:05:23.968Z,97306.34
2023-01-31T00:07:50.272Z,97294.31
2023-01-31T00:10:16.570Z,97296.03
2023-01-31T00:12:42.868Z,97316.28
2023-01-31T00:15:09.171Z,97321.22
2023-01-31T00:17:36.006Z,97320.53
2023-01-31T00:20:02.330Z,97314.69
2023-01-31T00:22:28.644Z,97318.44
2023-01-31T00:24:54.933Z,97311.56
2023-01-31T00:27:21.280Z,97311.91
2023-01-31T00:29:47.581Z,97305.34
2023-01-31T00:32:13.943Z,97308.88
2023-01-31T00:34:40.327Z,97301.28
2023-01-31T00:37:06.631Z,97308.09
2023-01-31T00:39:32.928Z,97299.88
2023-01-31T00:41:59.233Z,97307.00
2023-01-31T00:44:25.551Z,97301.69
2023-01-31T00:46:51.902Z,97305.97
2023-01-31T00:49:18.224Z,97300.41
2023-01-31T00:51:44.556Z,97301.78
2023-01-31T00:54:10.851Z,97305.19
2023-01-31T00:56:37.291Z,97299.75
2023-01-31T00:59:04.186Z,97304.00
2023-01-31T01:01:30.563Z,97297.69
2023-01-31T01:03:56.879Z,97291.31
2023-01-31T01:06:23.199Z,97292.84
2023-01-31T01:08:49.515Z,97286.31
2023-01-31T01:11:15.817Z,97294.75
2023-01-31T01:13:42.120Z,97308.19
2023-01-31T01:16:08.436Z,97308.84
2023-01-31T01:18:34.860Z,97313.91
2023-01-31T01:21:01.182Z,97308.88
2023-01-31T01:23:27.468Z,97318.09
2023-01-31T01:25:53.753Z,97310.69
2023-01-31T01:28:20.059Z,97306.75
2023-01-31T01:30:46.351Z,97303.06
2023-01-31T01:33:12.651Z,97307.75
2023-01-31T01:35:38.964Z,97308.19
2023-01-31T01:38:05.284Z,97307.53
2023-01-31T01:40:31.570Z,97296.81
2023-01-31T01:42:57.886Z,97300.19
2023-01-31T01:45:24.317Z,97298.69
2023-01-31T01:47:50.764Z,97308.09
2023-01-31T01:50:17.098Z,97309.22
2023-01-31T01:52:43.390Z,97304.63
2023-01-31T01:55:09.681Z,97299.16
2023-01-31T01:57:36.323Z,97299.84
2023-01-31T02:00:02.672Z,97304.84
2023-01-31T02:02:28.946Z,97299.75
2023-01-31T02:04:55.301Z,97301.97
2023-01-31T02:07:21.587Z,97291.09
2023-01-31T02:09:47.881Z,97283.03
2023-01-31T02:15:03.220Z,97295.31
2023-01-31T02:17:29.562Z,97301.13
2023-01-31T02:19:55.845Z,97297.81
2023-01-31T02:22:22.134Z,97305.78
2023-01-31T02:24:48.441Z,97304.69
2023-01-31T02:27:14.739Z,97317.94
2023-01-31T02:29:41.025Z,97319.53
2023-01-31T02:32:08.825Z,97319.38
2023-01-31T02:34:36.912Z,97322.88
2023-01-31T02:37:03.192Z,97321.88
2023-01-31T02:39:29.488Z,97318.28
2023-01-31T02:41:55.768Z,97309.06
2023-01-31T02:44:22.432Z,97308.09
2023-01-31T02:46:48.759Z,97305.69
2023-01-31T02:49:15.044Z,97303.19
2023-01-31T02:51:41.347Z,97302.38
2023-01-31T02:54:07.664Z,97304.47
2023-01-31T02:56:33.948Z,97305.59
2023-01-31T02:59:00.229Z,97303.56
2023-01-31T03:01:26.542Z,97299.75
2023-01-31T03:03:52.813Z,97300.97
2023-01-31T03:06:19.093Z,97307.22
2023-01-31T03:08:45.422Z,97317.31
2023-01-31T03:11:11.707Z,97317.22
2023-01-31T03:13:38.038Z,97319.81
2023-01-31T03:16:04.336Z,97310.22
2023-01-31T03:18:30.628Z,97316.53
2023-01-31T03:20:56.914Z,97327.03
2023-01-31T03:23:23.205Z,97340.56
2023-01-31T03:25:49.499Z,97340.88
2023-01-31T03:28:16.362Z,97340.66
2023-01-31T03:30:42.779Z,97350.03
2023-01-31T03:33:09.083Z,97348.56
2023-01-31T03:35:38.811Z,97350.75
2023-01-31T03:38:05.155Z,97359.75
2023-01-31T03:40:31.428Z,97353.38
2023-01-31T03:42:57.756Z,97358.06
2023-01-31T03:45:24.058Z,97365.88
2023-01-31T03:47:50.330Z,97368.06
2023-01-31T03:50:16.624Z,97365.63
2023-01-31T03:52:42.939Z,97359.22
2023-01-31T03:55:09.227Z,97363.91
2023-01-31T03:57:35.998Z,97362.00
2023-01-31T04:00:02.381Z,97368.84
2023-01-31T04:02:28.678Z,97363.91
2023-01-31T04:04:54.998Z,97365.84
2023-01-31T04:07:21.304Z,97358.69
2023-01-31T04:09:47.582Z,97356.50
2023-01-31T04:12:14.116Z,97362.31
2023-01-31T04:14:40.484Z,97358.47
2023-01-31T04:17:06.775Z,97353.81
2023-01-31T04:19:33.275Z,97360.34
2023-01-31T04:21:59.585Z,97363.19
2023-01-31T04:24:25.869Z,97364.88
2023-01-31T04:26:52.179Z,97364.34
2023-01-31T04:29:18.517Z,97367.38
2023-01-31T04:31:44.866Z,97363.03
2023-01-31T04:34:11.727Z,97359.91
2023-01-31T04:36:38.048Z,97364.63
2023-01-31T04:39:04.327Z,97354.69
2023-01-31T04:41:30.613Z,97353.88
2023-01-31T04:43:56.900Z,97367.44
2023-01-31T04:46:23.208Z,97365.84
2023-01-31T04:48:49.510Z,97366.59
2023-01-31T04:51:15.809Z,97374.09
2023-01-31T04:53:42.087Z,97378.84
2023-01-31T04:56:08.386Z,97377.75
2023-01-31T04:58:34.711Z,97379.38
2023-01-31T05:01:01.020Z,97369.97
2023-01-31T05:03:27.329Z,97373.16
2023-01-31T05:05:53.626Z,97383.94
2023-01-31T05:08:22.740Z,97373.94
2023-01-31T05:10:49.026Z,97374.34
2023-01-31T05:13:15.320Z,97383.25
2023-01-31T05:15:41.599Z,97385.41
2023-01-31T05:18:07.871Z,97380.56
2023-01-31T05:20:34.209Z,97400.31
2023-01-31T05:23:00.491Z,97390.75
2023-01-31T05:25:26.764Z,97392.78
2023-01-31T05:27:53.053Z,97387.88
2023-01-31T05:30:19.447Z,97387.78
2023-01-31T05:32:45.821Z,97387.97
2023-01-31T05:35:12.117Z,97389.66
2023-01-31T05:37:38.408Z,97383.97
2023-01-31T05:40:04.699Z,97393.28
2023-01-31T05:42:31.199Z,97397.16
2023-01-31T05:44:57.496Z,97396.56
2023-01-31T05:47:23.777Z,97406.69
2023-01-31T05:49:50.072Z,97411.31
2023-01-31T05:52:16.349Z,97411.13
2023-01-31T05:54:42.638Z,97418.09
2023-01-31T05:57:09.055Z,97430.38
2023-01-31T05:59:35.344Z,97423.53
2023-01-31T06:02:02.251Z,97420.47
2023-01-31T06:04:28.696Z,97422.84
2023-01-31T06:06:55.061Z,97422.84
2023-01-31T06:09:21.335Z,97429.72
2023-01-31T06:11:47.642Z,97427.34
2023-01-31T06:14:13.948Z,97427.78
2023-01-31T06:16:40.232Z,97428.97
2023-01-31T06:19:06.548Z,97438.66
2023-01-31T06:21:33.044Z,97441.63
2023-01-31T06:23:59.727Z,97436.38
2023-01-31T06:26:26.140Z,97432.47
2023-01-31T06:28:52.452Z,97433.28
2023-01-31T06:31:18.835Z,97436.84
2023-01-31T06:33:47.813Z,97429.97
2023-01-31T06:36:16.014Z,97430.91
2023-01-31T06:38:46.434Z,97428.78
2023-01-31T06:41:12.736Z,97434.19
2023-01-31T06:43:39.019Z,97432.94
2023-01-31T06:46:05.492Z,97440.59
2023-01-31T06:48:31.880Z,97441.31
2023-01-31T06:50:58.175Z,97445.84
2023-01-31T06:53:24.460Z,97451.94
2023-01-31T06:55:50.764Z,97450.66
2023-01-31T06:58:19.036Z,97452.38
2023-01-31T07:00:46.703Z,97453.28
2023-01-31T07:03:13.010Z,97456.84
2023-01-31T07:05:39.297Z,97469.66
2023-01-31T07:08:05.585Z,97469.97
2023-01-31T07:10:32.489Z,97473.19
2023-01-31T07:12:58.839Z,97472.03
2023-01-31T07:15:25.135Z,97464.03
2023-01-31T07:17:51.558Z,97471.63
2023-01-31T07:20:17.828Z,97475.03
2023-01-31T07:22:44.127Z,97476.16
2023-01-31T07:25:10.422Z,97475.25
2023-01-31T07:27:36.780Z,97471.59
2023-01-31T07:30:03.066Z,97475.13
2023-01-31T07:32:29.992Z,97467.28
2023-01-31T07:34:56.353Z,97469.69
2023-01-31T07:37:22.626Z,97469.38
2023-01-31T07:39:49.447Z,97469.94
2023-01-31T07:42:15.738Z,97479.16
2023-01-31T07:44:42.020Z,97489.50
2023-01-31T07:47:08.459Z,97487.16
2023-01-31T07:49:34.748Z,97476.41
2023-01-31T07:52:01.030Z,97480.38
2023-01-31T07:54:27.345Z,97477.88
2023-01-31T07:56:53.627Z,97476.78
2023-01-31T07:59:19.911Z,97478.28
2023-01-31T08:01:48.288Z,97476.09
2023-01-31T08:04:21.471Z,97479.38
2023-01-31T08:06:48.200Z,97479.53
2023-01-31T08:09:14.657Z,97477.91
2023-01-31T08:11:41.028Z,97482.59
2023-01-31T08:14:07.332Z,97491.66
2023-01-31T08:16:33.605Z,97489.47
2023-01-31T08:18:59.885Z,97488.31
2023-01-31T08:21:26.168Z,97488.84
2023-01-31T08:23:52.453Z,97487.81
2023-01-31T08:26:18.748Z,97484.38
2023-01-31T08:28:45.062Z,97488.50
2023-01-31T08:31:11.414Z,97501.13
2023-01-31T08:33:37.746Z,97496.50
2023-01-31T08:36:04.100Z,97499.59
2023-01-31T08:38:30.464Z,97499.38
2023-01-31T08:40:56.775Z,97499.69
2023-01-31T08:43:23.086Z,97502.69
2023-01-31T08:45:49.384Z,97506.25
2023-01-31T08:48:15.677Z,97501.66
2023-01-31T08:50:42.014Z,97497.22
2023-01-31T08:53:08.313Z,97493.78
2023-01-31T08:55:34.615Z,97496.88
2023-01-31T08:58:00.926Z,97501.72
2023-01-31T09:00:27.250Z,97498.53
2023-01-31T09:02:53.641Z,97496.03
2023-01-31T09:05:20.277Z,97499.09
2023-01-31T09:07:46.720Z,97504.47
2023-01-31T09:10:13.006Z,97511.59
2023-01-31T09:12:39.494Z,97510.78
2023-01-31T09:15:05.781Z,97502.03
2023-01-31T09:17:32.268Z,97502.50
2023-01-31T09:19:58.591Z,97509.84
2023-01-31T09:22:24.908Z,97512.25
2023-01-31T09:24:51.259Z,97519.91
2023-01-31T09:27:17.573Z,97523.00
2023-01-31T09:29:43.853Z,97516.91
2023-01-31T09:32:10.140Z,97520.81
2023-01-31T09:34:36.884Z,97509.47
2023-01-31T09:37:03.322Z,97514.28
2023-01-31T09:39:29.763Z,97521.41
2023-01-31T09:41:56.142Z,97527.06
2023-01-31T09:44:22.438Z,97513.41
2023-01-31T09:46:48.781Z,97518.47
2023-01-31T09:49:15.117Z,97519.25
2023-01-31T09:51:41.424Z,97521.03
2023-01-31T09:54:07.706Z,97523.34
2023-01-31T09:56:34.005Z,97528.09
2023-01-31T09:59:00.294Z,97529.41
2023-01-31T10:01:26.595Z,97527.94
2023-01-31T10:03:53.020Z,97524.06
2023-01-31T10:06:19.314Z,97524.56
2023-01-31T10:08:45.600Z,97531.81
2023-01-31T10:11:12.681Z,97530.53
2023-01-31T10:13:39.099Z,97520.53
2023-01-31T10:16:05.401Z,97532.91
2023-01-31T10:18:31.711Z,97520.38
2023-01-31T10:20:57.994Z,97514.28
2023-01-31T10:23:24.278Z,97515.63
2023-01-31T10:25:50.591Z,97513.22
2023-01-31T10:28:16.989Z,97501.66
2023-01-31T10:30:43.304Z,97509.56
2023-01-31T10:33:09.641Z,97495.34
2023-01-31T10:35:35.928Z,97505.63
2023-01-31T10:38:02.224Z,97518.47
2023-01-31T10:40:28.972Z,97515.72
2023-01-31T10:42:55.276Z,97521.66
2023-01-31T10:45:21.990Z,97514.44
2023-01-31T10:47:48.718Z,97515.31
2023-01-31T10:50:15.011Z,97501.00
2023-01-31T10:52:41.296Z,97492.94
2023-01-31T10:55:07.618Z,97492.66
2023-01-31T10:57:33.901Z,97491.50
2023-01-31T11:00:00.237Z,97482.72
2023-01-31T11:02:26.582Z,97473.97
2023-01-31T11:04:52.883Z,97463.66
2023-01-31T11:07:19.173Z,97461.25
2023-01-31T11:09:45.478Z,97462.47
2023-01-31T11:12:11.792Z,97465.22
2023-01-31T11:14:38.078Z,97457.66
2023-01-31T11:17:04.379Z,97453.66
2023-01-31T11:19:30.681Z,97455.69
2023-01-31T11:21:56.974Z,97453.63
2023-01-31T11:24:23.281Z,97443.75
2023-01-31T11:26:49.572Z,97443.72
2023-01-31T11:29:15.873Z,97449.72
2023-01-31T11:31:42.239Z,97439.81
2023-01-31T11:34:08.577Z,97446.94
2023-01-31T11:36:34.867Z,97441.00
2023-01-31T11:39:01.198Z,97449.31
2023-01-31T11:41:27.482Z,97441.78
2023-01-31T11:43:53.780Z,97444.94
2023-01-31T11:46:20.101Z,97438.19
2023-01-31T11:48:46.403Z,97437.78
2023-01-31T11:51:12.679Z,97432.50
2023-01-31T11:53:39.051Z,97436.50
2023-01-31T11:56:05.357Z,97437.25
2023-01-31T11:58:31.784Z,97430.00
2023-01-31T12:00:58.087Z,97425.47
2023-01-31T12:03:24.428Z,97428.13
2023-01-31T12:05:50.772Z,97412.97
2023-01-31T12:08:17.107Z,97416.19
2023-01-31T12:10:43.391Z,97408.59
2023-01-31T12:13:18.532Z,97410.28
2023-01-31T12:15:45.611Z,97404.56
2023-01-31T12:18:11.905Z,97394.69
2023-01-31T12:20:38.202Z,97400.81
2023-01-31T12:23:04.522Z,97394.81
2023-01-31T12:25:30.810Z,97386.84
2023-01-31T12:27:57.105Z,97385.53
2023-01-31T12:30:23.493Z,97384.03
2023-01-31T12:32:49.820Z,97379.16
2023-01-31T12:35:16.114Z,97368.72
2023-01-31T12:37:42.429Z,97367.63
2023-01-31T12:40:23.788Z,97376.00
2023-01-31T12:42:50.781Z,97374.56
2023-01-31T12:45:17.263Z,97379.31
2023-01-31T12:47:43.651Z,97371.69
2023-01-31T12:50:11.832Z,97370.47
2023-01-31T12:52:38.135Z,97381.53
2023-01-31T12:55:04.423Z,97379.31
2023-01-31T12:57:30.798Z,97372.16
2023-01-31T12:59:57.097Z,97367.72
2023-01-31T13:02:23.460Z,97353.91
2023-01-31T13:04:49.774Z,97349.91
2023-01-31T13:07:16.069Z,97351.50
2023-01-31T13:09:42.355Z,97343.84
2023-01-31T13:12:08.666Z,97349.38
2023-01-31T13:14:34.949Z,97349.81
2023-01-31T13:17:01.268Z,97339.31
2023-01-31T13:19:27.589Z,97341.19
2023-01-31T13:21:53.876Z,97337.25
2023-01-31T13:24:20.157Z,97333.28
2023-01-31T13:26:46.493Z,97343.25
2023-01-31T13:29:12.864Z,97344.44
2023-01-31T13:31:39.276Z,97344.41
2023-01-31T13:34:05.645Z,97348.41
2023-01-31T13:36:31.955Z,97344.84
2023-01-31T13:38:58.264Z,97337.28
2023-01-31T13:41:24.583Z,97345.25
2023-01-31T13:43:50.879Z,97363.09
2023-01-31T13:46:18.295Z,97349.22
2023-01-31T13:48:44.589Z,97348.41
2023-01-31T13:51:10.897Z,97364.31
2023-01-31T13:53:37.183Z,97363.50
2023-01-31T13:56:03.496Z,97367.50
2023-01-31T13:58:29.783Z,97346.78
2023-01-31T14:00:56.065Z,97338.41
2023-01-31T14:03:22.420Z,97334.84
2023-01-31T14:05:48.713Z,97328.44
2023-01-31T14:08:15.000Z,97326.88
2023-01-31T14:10:41.308Z,97334.06
2023-01-31T14:13:07.588Z,97343.66
2023-01-31T14:15:33.879Z,97338.88
2023-01-31T14:18:00.173Z,97351.22
2023-01-31T14:20:26.455Z,97329.38
2023-01-31T14:22:52.739Z,97330.53
2023-01-31T14:25:19.363Z,97324.59
2023-01-31T14:27:45.930Z,97339.69
2023-01-31T14:30:12.212Z,97339.28
2023-01-31T14:32:38.514Z,97331.75
2023-01-31T14:35:04.796Z,97322.53
2023-01-31T14:37:31.099Z,97318.63
2023-01-31T14:39:57.390Z,97324.56
2023-01-31T14:42:23.679Z,97319.03
2023-01-31T14:44:49.965Z,97323.78
2023-01-31T14:47:16.285Z,97329.28
2023-01-31T14:49:42.576Z,97340.06
2023-01-31T14:52:08.865Z,97331.72
2023-01-31T14:54:35.177Z,97323.00
2023-01-31T14:57:01.468Z,97325.38
2023-01-31T14:59:27.763Z,97332.53
2023-01-31T15:01:54.075Z,97324.59
2023-01-31T15:04:20.363Z,97327.75
2023-01-31T15:06:46.645Z,97316.25
2023-01-31T15:09:12.980Z,97305.53
2023-01-31T15:11:42.375Z,97310.69
2023-01-31T15:14:09.250Z,97313.03
2023-01-31T15:16:35.599Z,97311.81
2023-01-31T15:19:01.915Z,97312.56
2023-01-31T15:21:28.224Z,97320.53
2023-01-31T15:23:54.533Z,97310.22
2023-01-31T15:26:20.844Z,97310.66
2023-01-31T15:28:47.156Z,97313.03
2023-01-31T15:31:13.466Z,97317.44
2023-01-31T15:33:39.772Z,97314.63
2023-01-31T15:36:06.081Z,97310.69
2023-01-31T15:38:32.477Z,97304.75
2023-01-31T15:40:58.758Z,97321.38
2023-01-31T15:43:25.052Z,97325.38
2023-01-31T15:45:51.546Z,97330.94
2023-01-31T15:48:18.089Z,97326.94
2023-01-31T15:50:44.383Z,97330.09
2023-01-31T15:53:10.687Z,97331.69
2023-01-31T15:55:36.974Z,97324.19
2023-01-31T15:58:03.269Z,97315.03
2023-01-31T16:00:29.591Z,97325.69
2023-01-31T16:02:55.864Z,97327.75
2023-01-31T16:05:22.564Z,97332.41
2023-01-31T16:07:49.163Z,97333.69
2023-01-31T16:10:15.456Z,97323.75
2023-01-31T16:12:41.743Z,97324.16
2023-01-31T16:15:08.091Z,97339.97
2023-01-31T16:17:34.360Z,97329.28
2023-01-31T16:20:00.705Z,97336.06
2023-01-31T16:22:27.056Z,97334.91
2023-01-31T16:24:53.348Z,97350.53
2023-01-31T16:27:19.650Z,97333.56
2023-01-31T16:29:45.945Z,97333.25
2023-01-31T16:32:12.233Z,97331.47
2023-01-31T16:34:38.517Z,97332.06
2023-01-31T16:37:04.842Z,97334.81
2023-01-31T16:39:31.132Z,97333.97
2023-01-31T16:41:58.241Z,97320.50
2023-01-31T16:44:24.645Z,97328.31
2023-01-31T16:46:50.938Z,97334.78
2023-01-31T16:49:17.226Z,97338.25
2023-01-31T16:51:43.517Z,97349.78
2023-01-31T16:54:09.816Z,97350.78
2023-01-31T16:56:36.110Z,97354.94
2023-01-31T16:59:02.413Z,97341.28
2023-01-31T17:01:28.769Z,97343.56
2023-01-31T17:03:55.086Z,97340.88
2023-01-31T17:06:21.394Z,97334.53
2023-01-31T17:08:47.706Z,97341.44
2023-01-31T17:11:23.591Z,97334.97
2023-01-31T17:13:55.470Z,97341.59
2023-01-31T17:16:21.761Z,97343.22
2023-01-31T17:18:48.077Z,97341.91
2023-01-31T17:21:15.740Z,97341.13
2023-01-31T17:23:42.081Z,97332.22
2023-01-31T17:26:08.388Z,97339.34
2023-01-31T17:28:34.707Z,97332.88
2023-01-31T17:31:01.073Z,97324.19
2023-01-31T17:33:27.409Z,97330.66
2023-01-31T17:35:53.736Z,97331.25
2023-01-31T17:38:20.031Z,97328.13
2023-01-31T17:40:46.402Z,97325.25
2023-01-31T17:43:12.751Z,97319.31
2023-01-31T17:45:39.047Z,97331.53
2023-01-31T17:48:06.165Z,97320.31
2023-01-31T17:50:33.987Z,97326.78
2023-01-31T17:53:00.290Z,97341.66
2023-01-31T17:55:26.575Z,97332.94
2023-01-31T17:57:52.878Z,97345.09
2023-01-31T18:00:19.202Z,97329.63
2023-01-31T18:02:45.608Z,97345.16
2023-01-31T18:05:11.944Z,97338.44
2023-01-31T18:07:38.228Z,97344.16
2023-01-31T18:10:04.537Z,97344.44
2023-01-31T18:12:30.835Z,97349.44
2023-01-31T18:14:57.122Z,97354.94
2023-01-31T18:17:23.421Z,97350.34
2023-01-31T18:19:49.728Z,97351.63
2023-01-31T18:22:16.025Z,97339.41
2023-01-31T18:24:42.318Z,97335.84
2023-01-31T18:27:08.662Z,97333.47
2023-01-31T18:29:34.935Z,97353.53
2023-01-31T18:32:01.305Z,97352.63
2023-01-31T18:34:27.699Z,97357.53
2023-01-31T18:36:53.989Z,97358.78
2023-01-31T18:39:20.296Z,97381.56
2023-01-31T18:41:46.646Z,97392.53
2023-01-31T18:44:12.933Z,97400.53
2023-01-31T18:46:39.397Z,97395.94
2023-01-31T18:49:05.733Z,97399.00
2023-01-31T18:51:32.021Z,97394.97
2023-01-31T18:53:58.309Z,97400.22
2023-01-31T18:56:24.615Z,97407.88
2023-01-31T18:58:50.911Z,97409.13
2023-01-31T19:01:17.219Z,97401.00
2023-01-31T19:03:43.586Z,97402.56
2023-01-31T19:06:09.864Z,97402.00
2023-01-31T19:08:36.150Z,97410.59
2023-01-31T19:11:02.439Z,97396.22
2023-01-31T19:13:28.723Z,97396.75
2023-01-31T19:15:55.033Z,97394.00
2023-01-31T19:18:21.357Z,97401.19
2023-01-31T19:20:47.643Z,97384.81
2023-01-31T19:23:13.930Z,97387.16
2023-01-31T19:25:40.237Z,97387.25
2023-01-31T19:28:06.520Z,97394.69
2023-01-31T19:30:32.823Z,97387.28
2023-01-31T19:32:59.160Z,97386.66
2023-01-31T19:35:25.457Z,97383.72
2023-01-31T19:37:51.757Z,97387.69
2023-01-31T19:40:18.067Z,97392.47
2023-01-31T19:42:44.344Z,97391.59
2023-01-31T19:45:10.631Z,97390.38
2023-01-31T19:47:36.937Z,97394.31
2023-01-31T19:50:03.225Z,97395.41
2023-01-31T19:52:29.513Z,97389.09
2023-01-31T19:54:55.838Z,97394.75
2023-01-31T19:57:22.124Z,97397.69
2023-01-31T19:59:48.405Z,97392.59
2023-01-31T20:02:14.807Z,97393.44
2023-01-31T20:04:41.157Z,97387.97
2023-01-31T20:07:07.453Z,97392.97
2023-01-31T20:09:33.744Z,97399.50
2023-01-31T20:12:00.019Z,97388.88
2023-01-31T20:14:26.300Z,97389.03
2023-01-31T20:16:52.620Z,97395.59
2023-01-31T20:19:20.493Z,97387.38
2023-01-31T20:21:46.879Z,97394.47
2023-01-31T20:24:13.184Z,97385.84
2023-01-31T20:26:39.498Z,97381.97
2023-01-31T20:29:05.826Z,97385.66
2023-01-31T20:31:32.215Z,97388.44
2023-01-31T20:33:58.529Z,97390.56
2023-01-31T20:36:24.810Z,97401.47
2023-01-31T20:38:51.140Z,97392.75
2023-01-31T20:41:17.424Z,97397.69
2023-01-31T20:43:43.704Z,97391.06
2023-01-31T20:46:10.127Z,97393.88
2023-01-31T20:48:36.473Z,97387.59
2023-01-31T20:51:02.790Z,97396.00
2023-01-31T20:53:29.092Z,97388.47
2023-01-31T20:55:55.370Z,97383.66
2023-01-31T20:58:21.653Z,97388.63
2023-01-31T21:00:47.959Z,97383.66
2023-01-31T21:03:14.327Z,97372.13
2023-01-31T21:05:40.639Z,97383.38
2023-01-31T21:08:06.954Z,97392.59
2023-01-31T21:10:33.241Z,97394.16
2023-01-31T21:12:59.527Z,97386.91
2023-01-31T21:15:27.828Z,97393.94
2023-01-31T21:17:54.934Z,97398.44
2023-01-31T21:20:21.419Z,97396.47
2023-01-31T21:22:47.889Z,97389.03
2023-01-31T21:25:14.177Z,97389.31
2023-01-31T21:27:40.493Z,97396.78
2023-01-31T21:30:06.816Z,97393.81
2023-01-31T21:32:33.102Z,97391.88
2023-01-31T21:34:59.391Z,97384.81
2023-01-31T21:37:25.692Z,97387.63
2023-01-31T21:39:51.972Z,97382.75
2023-01-31T21:42:18.272Z,97366.69
2023-01-31T21:44:44.625Z,97366.31
2023-01-31T21:47:11.041Z,97359.63
2023-01-31T21:49:37.317Z,97349.63
2023-01-31T21:52:03.620Z,97355.31
2023-01-31T21:54:29.917Z,97351.63
2023-01-31T21:56:56.218Z,97357.88
2023-01-31T21:59:22.513Z,97357.38
2023-01-31T22:01:48.814Z,97349.56
2023-01-31T22:04:15.147Z,97347.34
2023-01-31T22:06:41.449Z,97349.88
2023-01-31T22:09:07.738Z,97345.84
2023-01-31T22:11:34.015Z,97352.13
2023-01-31T22:14:00.324Z,97344.44
2023-01-31T22:16:26.625Z,97350.53
2023-01-31T22:18:52.969Z,97352.16
2023-01-31T22:21:19.289Z,97351.25
2023-01-31T22:23:45.600Z,97351.88
2023-01-31T22:26:11.876Z,97354.16
2023-01-31T22:28:38.184Z,97351.91
2023-01-31T22:31:04.546Z,97350.94
2023-01-31T22:33:30.900Z,97353.19
2023-01-31T22:35:57.230Z,97348.06
2023-01-31T22:38:26.373Z,97352.53
2023-01-31T22:40:52.649Z,97351.91
2023-01-31T22:43:18.947Z,97353.03
2023-01-31T22:45:45.234Z,97356.59
2023-01-31T22:48:11.525Z,97360.03
2023-01-31T22:50:37.879Z,97353.84
2023-01-31T22:53:04.199Z,97347.03
2023-01-31T22:55:30.492Z,97352.06
2023-01-31T22:57:56.850Z,97343.56
2023-01-31T23:00:23.356Z,97349.19
2023-01-31T23:02:49.799Z,97342.16
2023-01-31T23:05:16.102Z,97345.13
2023-01-31T23:07:42.384Z,97349.78
2023-01-31T23:10:08.673Z,97343.97
2023-01-31T23:12:34.993Z,97343.34
2023-01-31T23:15:01.283Z,97335.63
2023-01-31T23:17:27.593Z,97342.84
2023-01-31T23:19:53.886Z,97335.91
2023-01-31T23:22:20.161Z,97336.19
2023-01-31T23:24:46.449Z,97331.78
2023-01-31T23:27:12.743Z,97339.34
2023-01-31T23:29:39.035Z,97333.41
2023-01-31T23:32:05.317Z,97335.13
2023-01-31T23:34:31.624Z,97325.44
2023-01-31T23:36:58.052Z,97321.88
2023-01-31T23:39:24.345Z,97330.44
2023-01-31T23:41:50.653Z,97321.56
2023-01-31T23:44:16.940Z,97323.59
2023-01-31T23:46:49.056Z,97322.78
2023-01-31T23:49:15.352Z,97317.88
2023-01-31T23:51:41.637Z,97318.44
2023-01-31T23:54:07.933Z,97310.34
2023-01-31T23:56:34.284Z,97315.28
2023-01-31T23:59:00.560Z,97314.41
